Time;durP1;ratioP1;P1;durP2;ratioP2;P2;SDS_P1;SDS_P2;PMS_P1;PMS_P2;Temp;Humidity;BMP_temperature;BMP_pressure;BME280_temperature;BME280_humidity;BME280_pressure;Samples;Min_cycle;Max_cycle;Signal;HPM_P1;HPM_P2
2023/08/19 00:00:47;;;;;;;8.32;7.53;;;19.60;99.90;;;;;;5030697;28;20626;-84
2023/08/19 00:03:14;;;;;;;12.13;7.93;;;19.60;99.90;;;;;;5023945;28;20244;-85
2023/08/19 00:05:42;;;;;;;8.27;7.40;;;19.60;99.90;;;;;;5014953;28;20612;-84
2023/08/19 00:08:08;;;;;;;10.10;8.27;;;19.60;99.90;;;;;;5033893;28;20559;-84
2023/08/19 00:10:35;;;;;;;9.65;7.75;;;19.60;99.90;;;;;;5036065;28;20842;-84
2023/08/19 00:13:02;;;;;;;9.43;8.40;;;19.60;99.90;;;;;;5033192;28;20227;-84
2023/08/19 00:15:29;;;;;;;11.02;8.15;;;19.60;99.90;;;;;;5029895;28;20224;-84
2023/08/19 00:17:56;;;;;;;11.65;8.40;;;19.50;99.90;;;;;;5013125;28;20221;-83
2023/08/19 00:20:26;;;;;;;10.68;8.00;;;19.60;99.90;;;;;;5010496;28;20225;-83
2023/08/19 00:22:54;;;;;;;11.65;8.50;;;19.50;99.90;;;;;;5024046;28;20227;-83
2023/08/19 00:25:21;;;;;;;9.70;8.05;;;19.60;99.90;;;;;;5019781;28;20213;-84
2023/08/19 00:27:48;;;;;;;9.13;8.05;;;19.60;99.90;;;;;;5027777;28;20228;-83
2023/08/19 00:30:15;;;;;;;11.52;8.48;;;19.60;99.90;;;;;;5004272;28;20299;-84
2023/08/19 00:32:42;;;;;;;9.05;8.13;;;19.60;99.90;;;;;;5027522;28;20229;-83
2023/08/19 00:35:09;;;;;;;8.70;7.78;;;19.60;99.90;;;;;;5005494;28;20582;-82
2023/08/19 00:37:37;;;;;;;11.13;8.35;;;19.50;99.90;;;;;;5018597;28;20236;-83
2023/08/19 00:40:07;;;;;;;9.32;7.80;;;19.50;99.90;;;;;;5004097;28;20220;-82
2023/08/19 00:42:34;;;;;;;8.68;7.75;;;19.50;99.90;;;;;;5023076;28;20230;-82
2023/08/19 00:45:02;;;;;;;10.07;8.43;;;19.50;99.90;;;;;;5009026;28;20232;-82
2023/08/19 00:47:29;;;;;;;10.65;8.48;;;19.50;99.90;;;;;;5016639;28;20307;-83
2023/08/19 00:49:57;;;;;;;14.13;8.73;;;19.50;99.90;;;;;;5031931;28;20248;-83
2023/08/19 00:52:24;;;;;;;10.30;8.30;;;19.50;99.90;;;;;;5008061;28;20888;-84
2023/08/19 00:54:52;;;;;;;9.98;9.00;;;19.50;99.90;;;;;;4998862;28;20221;-84
2023/08/19 00:57:20;;;;;;;9.15;8.25;;;19.50;99.90;;;;;;5017146;28;20233;-82
2023/08/19 00:59:48;;;;;;;10.80;7.97;;;19.50;99.90;;;;;;5031217;28;20309;-83
2023/08/19 01:02:14;;;;;;;11.10;8.82;;;19.50;99.90;;;;;;5011790;28;20596;-83
2023/08/19 01:04:41;;;;;;;9.73;8.32;;;19.40;99.90;;;;;;5026412;28;20228;-82
2023/08/19 01:07:16;;;;;;;9.85;8.85;;;19.40;99.90;;;;;;5025589;28;20782;-82
2023/08/19 01:09:48;;;;;;;10.13;8.82;;;19.40;99.90;;;;;;5030205;28;20238;-82
2023/08/19 01:12:23;;;;;;;9.50;8.45;;;19.40;99.90;;;;;;5028268;28;20259;-82
2023/08/19 01:14:59;;;;;;;11.40;9.07;;;19.40;99.90;;;;;;5024366;28;20232;-82
2023/08/19 01:17:30;;;;;;;12.07;9.38;;;19.30;99.90;;;;;;5008292;28;20738;-83
2023/08/19 01:19:58;;;;;;;10.25;8.73;;;19.30;99.90;;;;;;5009069;28;20217;-83
2023/08/19 01:22:34;;;;;;;13.25;9.23;;;19.30;99.90;;;;;;5006636;28;20688;-83
2023/08/19 01:25:04;;;;;;;11.30;9.30;;;19.30;99.90;;;;;;5014270;28;20224;-83
2023/08/19 01:27:30;;;;;;;10.90;9.38;;;19.20;99.90;;;;;;5017603;28;20342;-83
2023/08/19 01:29:57;;;;;;;10.15;9.02;;;19.20;99.90;;;;;;5001186;28;20232;-83
2023/08/19 01:32:24;;;;;;;11.32;9.38;;;19.20;99.90;;;;;;5003585;28;20233;-83
2023/08/19 01:34:53;;;;;;;11.38;9.50;;;19.10;99.90;;;;;;5011832;28;20378;-83
2023/08/19 01:37:27;;;;;;;11.65;9.68;;;19.10;99.90;;;;;;5020447;28;20233;-83
2023/08/19 01:39:56;;;;;;;11.82;9.27;;;19.10;99.90;;;;;;5008477;28;22456;-83
2023/08/19 01:42:25;;;;;;;11.05;9.82;;;19.10;99.90;;;;;;5032592;28;20842;-83
2023/08/19 01:44:54;;;;;;;10.50;9.40;;;19.10;99.90;;;;;;4990158;28;20225;-83
2023/08/19 01:47:21;;;;;;;10.77;9.40;;;19.00;99.90;;;;;;5026773;28;20289;-83
2023/08/19 01:49:48;;;;;;;14.13;9.90;;;19.00;99.90;;;;;;5017512;28;20223;-83
2023/08/19 01:52:15;;;;;;;13.43;10.02;;;19.00;99.90;;;;;;5007204;28;20216;-83
2023/08/19 01:54:42;;;;;;;10.60;9.07;;;19.00;99.90;;;;;;5005567;28;20233;-83
2023/08/19 01:57:09;;;;;;;12.23;9.60;;;19.00;99.90;;;;;;5022343;28;20229;-83
2023/08/19 01:59:37;;;;;;;12.50;10.10;;;19.00;99.90;;;;;;5002167;28;20229;-83
2023/08/19 02:02:04;;;;;;;14.88;9.38;;;19.00;99.90;;;;;;4995357;28;20312;-83
2023/08/19 02:04:30;;;;;;;11.48;10.32;;;19.00;99.90;;;;;;5022903;28;20275;-84
2023/08/19 02:06:57;;;;;;;11.25;9.50;;;19.00;99.90;;;;;;5027165;28;20252;-83
2023/08/19 02:09:24;;;;;;;11.63;10.18;;;19.00;99.90;;;;;;5033361;28;20936;-83
2023/08/19 02:11:51;;;;;;;15.75;10.13;;;19.00;99.90;;;;;;5018626;28;20228;-83
2023/08/19 02:14:17;;;;;;;10.40;9.25;;;18.90;99.90;;;;;;5016538;28;20701;-83
2023/08/19 02:16:46;;;;;;;10.80;9.50;;;19.00;99.90;;;;;;5009598;28;20224;-83
2023/08/19 02:19:13;;;;;;;11.68;9.90;;;18.90;99.90;;;;;;5010762;28;20657;-83
2023/08/19 02:21:39;;;;;;;10.93;9.40;;;18.90;99.90;;;;;;5003400;28;20240;-83
2023/08/19 02:24:07;;;;;;;11.65;9.95;;;18.90;99.90;;;;;;5029901;28;20224;-83
2023/08/19 02:26:34;;;;;;;12.40;10.27;;;18.90;99.90;;;;;;5007240;28;20239;-83
2023/08/19 02:29:01;;;;;;;11.23;10.13;;;19.00;99.90;;;;;;5005962;28;20934;-83
2023/08/19 02:31:28;;;;;;;14.32;9.85;;;18.90;99.90;;;;;;4985651;28;20582;-83
2023/08/19 02:33:56;;;;;;;10.55;9.45;;;18.90;99.90;;;;;;5015865;28;20612;-83
2023/08/19 02:36:23;;;;;;;12.27;10.25;;;19.00;99.90;;;;;;5022465;28;20228;-84
2023/08/19 02:38:50;;;;;;;10.98;9.90;;;18.90;99.90;;;;;;5009664;28;20225;-83
2023/08/19 02:41:16;;;;;;;12.45;10.45;;;18.90;99.90;;;;;;5010513;28;20228;-83
2023/08/19 02:43:43;;;;;;;12.40;9.82;;;18.90;99.90;;;;;;5023994;28;20252;-83
2023/08/19 02:46:10;;;;;;;11.43;10.32;;;18.90;99.90;;;;;;5008364;28;20259;-83
2023/08/19 02:48:37;;;;;;;11.93;10.63;;;18.90;99.90;;;;;;5006665;28;20643;-83
2023/08/19 02:51:05;;;;;;;15.73;10.55;;;18.90;99.90;;;;;;5031194;28;20224;-82
2023/08/19 02:53:31;;;;;;;12.45;9.93;;;18.90;99.90;;;;;;5024095;28;20654;-83
2023/08/19 02:55:58;;;;;;;14.87;10.30;;;18.90;99.90;;;;;;5026606;28;20283;-83
2023/08/19 02:58:25;;;;;;;10.88;9.77;;;18.90;99.90;;;;;;5003010;28;20580;-82
2023/08/19 03:00:52;;;;;;;13.53;10.43;;;18.90;99.90;;;;;;5012465;28;20233;-82
2023/08/19 03:03:19;;;;;;;11.85;10.38;;;18.90;99.90;;;;;;4993831;28;20356;-81
2023/08/19 03:05:46;;;;;;;11.30;9.77;;;18.80;99.90;;;;;;5007181;28;20748;-82
2023/08/19 03:08:14;;;;;;;14.95;10.45;;;18.80;99.90;;;;;;5025712;28;20225;-83
2023/08/19 03:10:41;;;;;;;13.37;11.00;;;18.80;99.90;;;;;;5016316;28;20312;-82
2023/08/19 03:13:09;;;;;;;12.80;10.10;;;18.80;99.90;;;;;;5025167;28;20216;-82
2023/08/19 03:15:38;;;;;;;12.73;10.10;;;18.80;99.90;;;;;;5010701;28;20871;-81
2023/08/19 03:18:05;;;;;;;11.60;10.37;;;18.70;99.90;;;;;;5009012;28;20226;-82
2023/08/19 03:20:33;;;;;;;14.07;11.27;;;18.70;99.90;;;;;;5027778;28;20244;-82
2023/08/19 03:23:00;;;;;;;12.23;10.87;;;18.70;99.90;;;;;;4998724;28;20217;-82
2023/08/19 03:25:28;;;;;;;14.73;11.17;;;18.70;99.90;;;;;;5020280;28;20216;-81
2023/08/19 03:27:55;;;;;;;11.87;10.67;;;18.60;99.90;;;;;;5032581;28;20232;-81
2023/08/19 03:30:22;;;;;;;14.63;10.83;;;18.60;99.90;;;;;;5007228;28;20233;-81
2023/08/19 03:32:50;;;;;;;15.10;10.90;;;18.60;99.90;;;;;;5028909;28;20227;-82
2023/08/19 03:35:17;;;;;;;12.27;11.00;;;18.60;99.90;;;;;;5009131;28;20625;-81
2023/08/19 03:37:44;;;;;;;13.07;10.90;;;18.60;99.90;;;;;;5004392;28;20226;-81
2023/08/19 03:40:11;;;;;;;11.40;10.40;;;18.50;99.90;;;;;;5023479;28;20228;-81
2023/08/19 03:42:40;;;;;;;11.20;10.03;;;18.50;99.90;;;;;;5006008;28;20233;-81
2023/08/19 03:45:08;;;;;;;13.80;11.20;;;18.50;99.90;;;;;;5012243;28;20834;-81
2023/08/19 03:47:36;;;;;;;12.00;10.80;;;18.50;99.90;;;;;;5013139;28;20810;-81
2023/08/19 03:50:03;;;;;;;11.93;10.70;;;18.50;99.90;;;;;;5024217;28;20217;-81
2023/08/19 03:52:29;;;;;;;12.50;11.20;;;18.40;99.90;;;;;;5009917;28;20228;-81
2023/08/19 03:54:56;;;;;;;12.70;10.00;;;18.50;99.90;;;;;;5024906;28;20229;-80
2023/08/19 03:57:23;;;;;;;13.87;10.87;;;18.40;99.90;;;;;;4996617;28;20230;-82
2023/08/19 03:59:52;;;;;;;14.90;10.73;;;18.40;99.90;;;;;;5019427;28;20660;-82
2023/08/19 04:02:19;;;;;;;12.48;10.25;;;18.40;99.90;;;;;;5019041;28;20228;-84
2023/08/19 04:05:00;;;;;;;11.85;10.65;;;18.40;99.90;;;;;;5024552;28;20225;-82
2023/08/19 04:07:27;;;;;;;15.50;11.25;;;18.30;99.90;;;;;;5017556;28;20698;-82
2023/08/19 04:09:54;;;;;;;14.53;11.07;;;18.30;99.90;;;;;;5004989;28;20251;-82
2023/08/19 04:12:22;;;;;;;12.10;10.82;;;18.30;99.90;;;;;;5016631;28;20907;-81
2023/08/19 04:14:51;;;;;;;11.30;10.10;;;18.30;99.90;;;;;;5030285;28;20617;-81
2023/08/19 04:17:18;;;;;;;12.37;10.00;;;18.30;99.90;;;;;;5006209;28;20224;-81
2023/08/19 04:19:45;;;;;;;13.23;10.40;;;18.30;99.90;;;;;;5022718;28;20228;-81
2023/08/19 04:22:13;;;;;;;11.80;10.60;;;18.30;99.90;;;;;;5026558;28;20232;-81
2023/08/19 04:24:40;;;;;;;13.40;10.87;;;18.20;99.90;;;;;;5013372;28;20719;-81
2023/08/19 04:27:07;;;;;;;11.10;10.00;;;18.20;99.90;;;;;;5018272;28;20232;-81
2023/08/19 04:29:35;;;;;;;11.43;10.30;;;18.20;99.90;;;;;;5022538;28;20218;-81
2023/08/19 04:32:04;;;;;;;11.93;10.70;;;18.20;99.90;;;;;;5006122;28;20607;-80
2023/08/19 04:34:32;;;;;;;15.87;10.23;;;18.20;99.90;;;;;;5003345;28;20395;-81
2023/08/19 04:37:02;;;;;;;11.03;9.93;;;18.20;99.90;;;;;;5012594;28;20242;-81
2023/08/19 04:39:30;;;;;;;12.37;11.07;;;18.20;99.90;;;;;;5016409;28;20788;-81
2023/08/19 04:42:02;;;;;;;11.60;9.60;;;18.20;99.90;;;;;;5009433;28;20253;-80
2023/08/19 04:44:29;;;;;;;12.60;10.60;;;18.20;99.90;;;;;;5011681;28;20236;-80
2023/08/19 04:46:58;;;;;;;12.27;10.02;;;18.20;99.90;;;;;;5027561;28;20228;-80
2023/08/19 04:49:27;;;;;;;11.10;10.00;;;18.20;99.90;;;;;;4993413;28;20239;-80
2023/08/19 04:51:54;;;;;;;13.20;10.47;;;18.20;99.90;;;;;;5016855;28;20276;-80
2023/08/19 04:54:21;;;;;;;11.23;10.03;;;18.20;99.90;;;;;;5005239;28;20283;-83
2023/08/19 04:56:48;;;;;;;10.75;9.63;;;18.30;99.90;;;;;;4998906;28;20230;-81
2023/08/19 04:59:15;;;;;;;12.30;9.45;;;18.30;99.90;;;;;;5026741;28;20300;-81
2023/08/19 05:01:42;;;;;;;13.07;9.90;;;18.40;99.90;;;;;;5004094;28;20225;-81
2023/08/19 05:04:09;;;;;;;10.38;9.27;;;18.40;99.90;;;;;;5007662;28;20225;-81
2023/08/19 05:06:37;;;;;;;11.00;9.50;;;18.40;99.90;;;;;;5010818;28;20266;-81
2023/08/19 05:09:04;;;;;;;11.73;9.05;;;18.40;99.90;;;;;;5026447;28;20339;-80
2023/08/19 05:11:30;;;;;;;12.57;9.43;;;18.50;99.90;;;;;;5005249;28;20935;-80
2023/08/19 05:14:01;;;;;;;10.02;9.10;;;18.50;99.90;;;;;;5023654;28;20239;-80
2023/08/19 05:16:28;;;;;;;10.27;9.27;;;18.50;99.90;;;;;;5022502;28;21327;-80
2023/08/19 05:19:05;;;;;;;11.57;9.52;;;18.50;99.90;;;;;;5023559;28;20311;-80
2023/08/19 05:21:33;;;;;;;10.77;9.68;;;18.60;99.90;;;;;;5024035;28;20231;-80
2023/08/19 05:24:01;;;;;;;15.15;10.07;;;18.60;99.90;;;;;;5002231;28;20223;-80
2023/08/19 05:26:27;;;;;;;10.45;9.45;;;18.60;99.90;;;;;;5019540;28;20695;-80
2023/08/19 05:28:54;;;;;;;10.68;9.57;;;18.70;99.90;;;;;;5017381;28;20642;-80
2023/08/19 05:31:21;;;;;;;10.75;9.10;;;18.70;99.90;;;;;;4990689;28;20595;-80
2023/08/19 05:33:47;;;;;;;10.38;8.70;;;18.70;99.90;;;;;;5026575;28;20634;-80
2023/08/19 05:36:14;;;;;;;11.45;9.07;;;18.70;99.90;;;;;;4993548;28;20581;-80
2023/08/19 05:38:41;;;;;;;9.60;8.70;;;18.80;99.90;;;;;;5030274;28;20242;-80
2023/08/19 05:41:08;;;;;;;11.52;9.00;;;18.80;99.90;;;;;;5031988;28;20239;-80
2023/08/19 05:43:35;;;;;;;10.85;9.40;;;18.90;99.90;;;;;;5009702;28;20270;-79
2023/08/19 05:46:04;;;;;;;15.75;9.13;;;18.90;99.90;;;;;;5021902;28;20245;-80
2023/08/19 05:48:31;;;;;;;10.55;9.18;;;18.90;99.90;;;;;;5015948;28;20231;-81
2023/08/19 05:50:58;;;;;;;11.88;9.07;;;19.00;99.90;;;;;;5004646;28;20902;-82
2023/08/19 05:53:25;;;;;;;11.82;8.60;;;19.00;99.90;;;;;;5024753;28;20228;-81
2023/08/19 05:55:52;;;;;;;11.32;9.07;;;19.10;99.90;;;;;;5016970;28;20307;-80
2023/08/19 05:58:20;;;;;;;9.20;8.23;;;19.10;99.90;;;;;;5026284;28;20721;-82
2023/08/19 06:00:47;;;;;;;10.48;9.20;;;19.20;99.90;;;;;;5022999;28;20253;-80
2023/08/19 06:03:14;;;;;;;9.10;8.20;;;19.30;99.90;;;;;;4994931;28;20217;-82
2023/08/19 06:05:41;;;;;;;9.75;8.70;;;19.30;99.90;;;;;;5036832;28;20231;-83
2023/08/19 06:08:08;;;;;;;9.57;8.63;;;19.40;99.90;;;;;;5023065;28;20224;-85
2023/08/19 06:10:34;;;;;;;10.73;8.73;;;19.40;99.90;;;;;;5003468;28;20316;-81
2023/08/19 06:13:01;;;;;;;10.75;8.98;;;19.50;99.90;;;;;;5030601;28;20312;-80
2023/08/19 06:15:29;;;;;;;11.00;8.52;;;19.60;99.90;;;;;;5034363;28;20228;-80
2023/08/19 06:17:56;;;;;;;10.05;8.48;;;19.60;99.90;;;;;;5016512;28;21014;-81
2023/08/19 06:20:23;;;;;;;12.80;8.68;;;19.60;99.90;;;;;;5031490;28;20228;-82
2023/08/19 06:22:49;;;;;;;9.98;8.90;;;19.60;99.90;;;;;;5016638;28;20232;-83
2023/08/19 06:25:16;;;;;;;13.18;9.35;;;19.70;99.90;;;;;;5011538;28;20229;-83
2023/08/19 06:27:43;;;;;;;11.27;8.85;;;19.70;99.90;;;;;;5029728;28;20707;-83
2023/08/19 06:30:11;;;;;;;9.68;8.70;;;19.70;99.90;;;;;;5010431;28;20600;-84
2023/08/19 06:32:39;;;;;;;11.32;9.00;;;19.80;99.90;;;;;;5005781;28;20304;-84
2023/08/19 06:35:07;;;;;;;9.18;8.27;;;19.90;99.90;;;;;;5011880;28;20221;-83
2023/08/19 06:37:40;;;;;;;10.23;8.45;;;19.90;99.90;;;;;;5015155;28;20581;-84
2023/08/19 06:40:13;;;;;;;9.23;8.32;;;20.00;99.90;;;;;;5030813;28;20256;-84
2023/08/19 06:42:41;;;;;;;11.25;8.70;;;20.10;99.90;;;;;;5027643;28;20220;-83
2023/08/19 06:45:10;;;;;;;10.50;8.65;;;20.20;99.90;;;;;;5000940;28;20235;-84
2023/08/19 06:47:42;;;;;;;10.48;8.57;;;20.30;99.90;;;;;;5011125;28;20227;-83
2023/08/19 06:50:10;;;;;;;10.63;9.18;;;20.40;99.90;;;;;;5013106;28;20219;-83
2023/08/19 06:52:38;;;;;;;9.20;8.30;;;20.50;99.90;;;;;;5031407;28;20586;-81
2023/08/19 06:55:06;;;;;;;9.98;8.98;;;20.50;99.90;;;;;;5006384;28;20272;-80
2023/08/19 06:57:36;;;;;;;10.07;9.07;;;20.60;99.90;;;;;;5025068;28;20780;-78
2023/08/19 07:00:08;;;;;;;9.00;8.10;;;20.70;99.90;;;;;;5013475;28;20217;-79
2023/08/19 07:02:37;;;;;;;9.98;8.77;;;20.70;99.90;;;;;;5025591;28;20227;-79
2023/08/19 07:05:08;;;;;;;12.30;9.32;;;20.80;99.90;;;;;;5016589;28;20227;-78
2023/08/19 07:07:36;;;;;;;9.65;8.25;;;20.80;99.90;;;;;;5032270;28;20246;-78
2023/08/19 07:10:05;;;;;;;9.55;8.68;;;20.90;99.90;;;;;;5011499;28;20227;-78
2023/08/19 07:12:33;;;;;;;10.57;8.55;;;21.00;99.90;;;;;;5042163;28;20255;-77
2023/08/19 07:15:00;;;;;;;9.35;8.27;;;21.00;99.90;;;;;;5022851;28;20227;-79
2023/08/19 07:17:30;;;;;;;10.15;8.75;;;21.00;99.90;;;;;;5040328;28;20236;-79
2023/08/19 07:19:57;;;;;;;10.50;8.27;;;21.10;99.90;;;;;;5026232;28;20223;-77
2023/08/19 07:22:27;;;;;;;9.05;8.23;;;21.20;99.90;;;;;;5010588;28;20243;-78
2023/08/19 07:24:55;;;;;;;10.25;9.13;;;21.30;99.90;;;;;;5020704;28;20693;-78
2023/08/19 07:27:22;;;;;;;9.70;8.80;;;21.40;99.90;;;;;;5006531;28;20233;-79
2023/08/19 07:29:51;;;;;;;9.00;8.10;;;21.40;99.90;;;;;;5027150;28;20303;-79
2023/08/19 07:32:19;;;;;;;10.45;8.60;;;21.50;99.90;;;;;;5027913;28;20589;-78
2023/08/19 07:34:46;;;;;;;9.55;8.52;;;21.70;99.90;;;;;;5016298;28;20213;-78
2023/08/19 07:37:13;;;;;;;9.25;8.35;;;22.00;99.90;;;;;;5016515;28;20799;-78
2023/08/19 07:39:41;;;;;;;10.63;7.95;;;22.40;99.90;;;;;;5021121;28;20715;-79
2023/08/19 07:42:07;;;;;;;8.50;7.38;;;23.00;99.90;;;;;;5027848;28;20232;-79
2023/08/19 07:44:34;;;;;;;8.57;7.28;;;23.60;99.90;;;;;;5032948;28;20323;-78
2023/08/19 07:47:01;;;;;;;21.85;11.75;;;24.40;99.90;;;;;;5031811;28;20225;-78
2023/08/19 07:49:28;;;;;;;7.25;6.47;;;25.20;99.90;;;;;;5018123;28;20224;-78
2023/08/19 07:51:54;;;;;;;7.55;6.72;;;25.90;99.90;;;;;;5012447;28;20232;-79
2023/08/19 07:54:22;;;;;;;7.68;6.88;;;26.70;99.90;;;;;;5032366;28;20220;-79
2023/08/19 07:56:53;;;;;;;7.28;6.57;;;27.30;99.90;;;;;;5033532;28;20247;-77
2023/08/19 07:59:22;;;;;;;7.05;6.35;;;28.00;99.90;;;;;;5016560;28;20216;-79
2023/08/19 08:01:48;;;;;;;7.15;6.45;;;28.70;99.90;;;;;;5034464;28;20236;-79
2023/08/19 08:04:16;;;;;;;8.48;6.20;;;29.30;99.90;;;;;;5032792;28;20768;-77
2023/08/19 08:06:43;;;;;;;6.82;6.10;;;29.80;99.90;;;;;;5016011;28;20234;-79
2023/08/19 08:09:10;;;;;;;6.65;6.15;;;30.40;99.90;;;;;;5025970;28;20226;-79
2023/08/19 08:11:36;;;;;;;7.20;6.60;;;30.90;99.90;;;;;;5029094;28;20228;-76
2023/08/19 08:14:04;;;;;;;7.43;6.72;;;31.50;99.90;;;;;;5037832;28;20224;-79
2023/08/19 08:16:31;;;;;;;12.30;7.95;;;31.90;99.90;;;;;;5017449;28;20876;-78
2023/08/19 08:18:58;;;;;;;7.10;6.40;;;32.30;99.90;;;;;;5039180;28;20231;-79
2023/08/19 08:21:24;;;;;;;7.10;6.50;;;32.70;99.90;;;;;;5028126;28;20232;-79
2023/08/19 08:23:53;;;;;;;7.50;6.80;;;33.00;99.90;;;;;;5033352;28;20223;-78
2023/08/19 08:26:19;;;;;;;6.85;6.03;;;33.40;99.90;;;;;;5030968;28;20753;-79
2023/08/19 08:28:46;;;;;;;7.00;6.40;;;33.70;99.80;;;;;;5036799;28;20221;-79
2023/08/19 08:31:14;;;;;;;6.50;6.00;;;34.00;99.50;;;;;;5033585;28;20220;-77
2023/08/19 08:33:40;;;;;;;6.75;6.15;;;34.40;98.60;;;;;;5027609;28;20221;-78
2023/08/19 08:36:08;;;;;;;8.70;6.18;;;34.70;98.40;;;;;;5037587;28;20230;-79
2023/08/19 08:38:34;;;;;;;6.50;5.90;;;35.00;97.60;;;;;;5024195;28;20351;-79
2023/08/19 08:41:04;;;;;;;6.20;5.63;;;35.30;96.80;;;;;;5027850;28;20213;-77
2023/08/19 08:43:33;;;;;;;6.93;6.22;;;35.60;96.20;;;;;;5024478;28;20240;-78
2023/08/19 08:46:00;;;;;;;8.00;5.85;;;35.90;95.80;;;;;;5007762;28;20232;-78
2023/08/19 08:48:32;;;;;;;6.55;5.95;;;36.20;95.60;;;;;;5035663;28;20868;-79
2023/08/19 08:51:00;;;;;;;6.30;5.72;;;36.50;94.70;;;;;;5024998;28;20224;-79
2023/08/19 08:53:28;;;;;;;5.97;5.38;;;36.80;94.80;;;;;;5023912;28;20302;-79
2023/08/19 08:55:56;;;;;;;6.20;5.20;;;37.00;93.60;;;;;;5029057;28;21009;-79
2023/08/19 08:58:23;;;;;;;5.93;5.40;;;37.30;91.60;;;;;;5038245;28;20766;-79
2023/08/19 09:00:50;;;;;;;6.50;5.90;;;37.40;90.90;;;;;;5033996;28;20238;-78
2023/08/19 09:03:20;;;;;;;6.45;5.70;;;37.30;90.80;;;;;;5036159;28;20235;-79
2023/08/19 09:05:51;;;;;;;5.60;5.03;;;37.00;90.00;;;;;;5034812;28;20235;-79
2023/08/19 09:08:22;;;;;;;6.05;5.45;;;36.70;89.60;;;;;;5026907;28;20231;-79
2023/08/19 09:10:49;;;;;;;6.35;5.80;;;36.30;88.30;;;;;;5038403;28;20231;-79
2023/08/19 09:13:23;;;;;;;7.38;6.22;;;36.00;90.60;;;;;;5035469;28;20567;-78
2023/08/19 09:15:50;;;;;;;7.28;6.65;;;35.70;90.20;;;;;;5015727;28;20236;-79
2023/08/19 09:18:18;;;;;;;7.93;6.05;;;35.30;89.60;;;;;;5009224;28;20259;-80
2023/08/19 09:20:46;;;;;;;7.80;7.10;;;35.00;90.70;;;;;;5014381;28;20229;-78
2023/08/19 09:23:14;;;;;;;7.30;6.47;;;34.50;89.90;;;;;;5034497;28;20224;-79
2023/08/19 09:25:41;;;;;;;7.82;7.13;;;34.00;89.90;;;;;;5028945;28;20335;-78
2023/08/19 09:28:08;;;;;;;7.13;6.43;;;33.60;91.30;;;;;;5020482;28;20220;-78
2023/08/19 09:30:35;;;;;;;7.20;6.60;;;33.20;92.20;;;;;;5017331;28;20213;-79
2023/08/19 09:33:02;;;;;;;7.38;6.68;;;32.80;92.50;;;;;;5036203;28;20223;-79
2023/08/19 09:35:35;;;;;;;7.57;6.88;;;32.50;92.90;;;;;;5036045;28;20231;-79
2023/08/19 09:38:03;;;;;;;8.32;6.97;;;32.30;92.90;;;;;;5022662;28;20232;-79
2023/08/19 09:40:31;;;;;;;8.00;7.20;;;32.10;94.20;;;;;;5022304;28;20263;-76
2023/08/19 09:42:59;;;;;;;8.52;7.70;;;32.00;94.40;;;;;;5016464;28;20303;-77
2023/08/19 09:45:26;;;;;;;7.70;6.93;;;32.00;94.50;;;;;;5010427;28;20228;-79
2023/08/19 09:47:54;;;;;;;8.07;7.28;;;31.90;94.50;;;;;;5029791;28;20563;-79
2023/08/19 09:50:22;;;;;;;8.82;7.38;;;32.00;95.00;;;;;;5013574;28;20242;-79
2023/08/19 09:52:55;;;;;;;8.55;7.45;;;32.00;95.30;;;;;;5024492;28;20222;-79
2023/08/19 09:55:25;;;;;;;8.43;7.55;;;32.10;95.40;;;;;;5030918;28;20838;-79
2023/08/19 09:57:54;;;;;;;8.20;7.38;;;32.20;95.20;;;;;;5033866;28;20327;-81
2023/08/19 10:00:21;;;;;;;9.32;7.78;;;32.40;95.20;;;;;;5020983;28;20954;-81
2023/08/19 10:02:48;;;;;;;9.18;8.38;;;32.60;95.00;;;;;;5015441;28;20224;-82
2023/08/19 10:05:19;;;;;;;8.65;7.68;;;32.60;94.00;;;;;;5029616;28;20224;-84
2023/08/19 10:07:50;;;;;;;8.68;7.88;;;32.70;94.30;;;;;;5036626;28;20213;-81
2023/08/19 10:10:18;;;;;;;8.57;7.88;;;32.70;94.50;;;;;;5026563;28;20751;-83
2023/08/19 10:12:46;;;;;;;7.85;7.15;;;32.70;94.40;;;;;;5011562;28;20217;-80
2023/08/19 10:15:15;;;;;;;8.05;7.30;;;32.80;94.70;;;;;;5003956;28;20223;-80
2023/08/19 10:17:47;;;;;;;7.65;6.95;;;32.80;94.90;;;;;;5024670;28;20256;-80
2023/08/19 10:20:18;;;;;;;8.95;8.13;;;33.00;95.00;;;;;;5010902;23;20225;-80
2023/08/19 10:22:48;;;;;;;8.73;7.93;;;33.10;94.40;;;;;;5026747;28;20228;-80
2023/08/19 10:25:19;;;;;;;8.82;8.13;;;33.30;94.20;;;;;;5037668;28;20225;-80
2023/08/19 10:27:46;;;;;;;8.40;7.60;;;33.40;94.20;;;;;;5003504;28;20775;-80
2023/08/19 10:30:32;;;;;;;8.20;7.50;;;33.50;93.60;;;;;;5003619;28;20209;-80
2023/08/19 10:33:04;;;;;;;8.63;7.90;;;33.50;94.10;;;;;;5004789;28;20595;-80
2023/08/19 10:35:56;;;;;;;8.27;7.57;;;33.60;93.90;;;;;;5002303;28;20304;-80
2023/08/19 10:38:23;;;;;;;8.73;7.82;;;33.90;93.80;;;;;;5020047;28;20230;-80
2023/08/19 10:41:02;;;;;;;8.15;7.40;;;34.00;93.50;;;;;;5007715;28;20225;-81
2023/08/19 10:43:29;;;;;;;8.70;7.80;;;34.20;93.20;;;;;;5014771;22;20227;-81
2023/08/19 10:45:59;;;;;;;8.13;7.43;;;34.40;93.20;;;;;;5048683;28;20262;-78
2023/08/19 10:48:35;;;;;;;9.65;8.05;;;34.60;92.70;;;;;;5061125;28;21188;-80
2023/08/19 10:51:01;;;;;;;8.48;7.68;;;34.90;92.00;;;;;;5038691;28;20317;-78
2023/08/19 10:53:28;;;;;;;8.50;7.70;;;35.00;92.10;;;;;;5056060;28;20278;-78
2023/08/19 10:55:56;;;;;;;8.48;7.80;;;35.20;92.40;;;;;;5043536;28;20855;-84
2023/08/19 10:58:23;;;;;;;10.52;8.35;;;35.40;91.80;;;;;;5061088;28;20227;-81
2023/08/19 11:00:50;;;;;;;9.02;8.18;;;35.70;91.20;;;;;;5061746;28;20223;-83
2023/08/19 11:03:20;;;;;;;10.70;8.45;;;35.90;90.30;;;;;;5060483;28;20771;-81
2023/08/19 11:05:50;;;;;;;7.63;6.93;;;36.10;89.20;;;;;;5058641;28;20275;-80
2023/08/19 11:08:17;;;;;;;8.82;7.22;;;36.20;90.00;;;;;;5038594;28;20224;-80
2023/08/19 11:10:45;;;;;;;8.30;7.50;;;36.40;90.40;;;;;;5037209;28;20243;-80
2023/08/19 11:13:13;;;;;;;8.73;7.22;;;36.40;87.10;;;;;;5036714;28;20212;-80
2023/08/19 11:15:42;;;;;;;8.82;8.13;;;36.40;87.70;;;;;;5042968;28;20237;-81
2023/08/19 11:18:08;;;;;;;8.50;7.70;;;36.30;87.30;;;;;;5052640;28;20227;-81
2023/08/19 11:20:37;;;;;;;8.20;7.40;;;36.20;87.60;;;;;;5055569;28;20227;-82
2023/08/19 11:23:04;;;;;;;8.63;7.93;;;36.10;87.40;;;;;;5061288;28;20228;-81
2023/08/19 11:25:36;;;;;;;10.23;7.38;;;36.10;88.70;;;;;;5058527;28;20224;-79
2023/08/19 11:28:04;;;;;;;7.63;6.72;;;36.00;88.30;;;;;;5059206;28;20227;-80
2023/08/19 11:30:31;;;;;;;8.48;7.55;;;36.20;89.60;;;;;;5039090;28;20313;-80
2023/08/19 11:32:58;;;;;;;8.30;7.50;;;36.40;88.90;;;;;;5054821;28;20280;-81
2023/08/19 11:35:28;;;;;;;8.13;7.43;;;36.50;88.90;;;;;;5041575;28;20227;-81
2023/08/19 11:37:56;;;;;;;8.98;7.97;;;36.50;84.70;;;;;;5042938;28;20683;-79
2023/08/19 11:40:33;;;;;;;8.32;7.50;;;36.50;84.70;;;;;;5042700;28;20273;-83
2023/08/19 11:43:06;;;;;;;12.40;7.38;;;36.30;85.10;;;;;;5047092;28;20226;-79
2023/08/19 11:45:37;;;;;;;8.00;7.30;;;36.20;85.50;;;;;;5052590;28;20285;-78
2023/08/19 11:48:07;;;;;;;8.32;7.53;;;36.00;84.40;;;;;;5055657;28;20243;-83
2023/08/19 11:50:35;;;;;;;8.02;7.20;;;35.70;86.20;;;;;;5058692;28;20308;-81
2023/08/19 11:53:04;;;;;;;9.25;8.35;;;35.50;86.70;;;;;;5061992;28;20765;-81
2023/08/19 11:55:31;;;;;;;10.20;7.40;;;35.30;86.90;;;;;;5076508;22;20304;-82
2023/08/19 11:57:57;;;;;;;8.45;7.65;;;35.10;88.30;;;;;;5090059;28;20671;-84
2023/08/19 12:00:26;;;;;;;8.50;7.70;;;34.90;86.90;;;;;;5078899;22;20221;-82
2023/08/19 12:02:53;;;;;;;10.70;7.90;;;34.60;87.70;;;;;;5029533;28;20247;-82
2023/08/19 12:05:23;;;;;;;9.25;8.25;;;34.40;90.00;;;;;;5027490;28;20221;-82
2023/08/19 12:07:50;;;;;;;9.60;8.02;;;34.10;90.10;;;;;;5027935;28;20263;-81
2023/08/19 12:10:18;;;;;;;8.52;7.68;;;33.90;90.80;;;;;;5030839;28;20232;-79
2023/08/19 12:12:58;;;;;;;8.95;8.05;;;33.80;91.20;;;;;;5030066;28;20228;-81
2023/08/19 12:15:25;;;;;;;10.05;9.05;;;33.70;91.40;;;;;;5026509;28;20227;-79
2023/08/19 12:17:51;;;;;;;8.70;7.93;;;33.60;91.00;;;;;;5036804;22;20244;-85
2023/08/19 12:20:18;;;;;;;9.20;8.32;;;33.60;91.70;;;;;;5046460;28;20605;-84
2023/08/19 12:22:45;;;;;;;11.48;8.80;;;33.60;91.60;;;;;;5046144;28;20337;-84
2023/08/19 12:25:12;;;;;;;9.20;8.18;;;33.40;91.70;;;;;;5048705;28;20216;-83
2023/08/19 12:27:40;;;;;;;8.85;7.97;;;33.30;92.20;;;;;;5061812;28;20227;-80
2023/08/19 12:30:08;;;;;;;8.93;8.13;;;33.20;92.20;;;;;;5061341;28;20623;-81
2023/08/19 12:32:34;;;;;;;9.45;8.63;;;33.10;92.10;;;;;;5053150;28;20250;-82
2023/08/19 12:35:01;;;;;;;8.82;7.93;;;33.00;92.20;;;;;;5060848;28;20228;-80
2023/08/19 12:37:28;;;;;;;9.27;8.13;;;32.90;92.10;;;;;;5060687;28;20251;-82
2023/08/19 12:39:55;;;;;;;8.75;7.95;;;32.70;92.30;;;;;;5062793;28;20296;-82
2023/08/19 12:42:22;;;;;;;8.88;7.97;;;32.60;92.50;;;;;;5068687;28;20234;-82
2023/08/19 12:44:50;;;;;;;9.07;8.27;;;32.50;92.50;;;;;;5085397;28;20769;-83